createdAt,value
2018-07-26T00:01:14.601Z,101194.21
2018-07-26T00:06:07.271Z,101185.92
2018-07-26T00:10:59.886Z,101193.83
2018-07-26T00:15:52.547Z,101198.78
2018-07-26T00:20:45.131Z,101195.22
2018-07-26T00:25:37.783Z,101191.98
2018-07-26T00:30:30.372Z,101190.59
2018-07-26T00:35:22.951Z,101192.22
2018-07-26T00:40:15.581Z,101190.18
2018-07-26T00:45:08.214Z,101186.78
2018-07-26T00:50:00.813Z,101183.70
2018-07-26T00:54:53.594Z,101187.00
2018-07-26T00:59:46.199Z,101192.84
2018-07-26T01:04:38.911Z,101191.39
2018-07-26T01:09:31.567Z,101191.06
2018-07-26T01:14:24.102Z,101195.06
2018-07-26T01:19:16.661Z,101198.20
2018-07-26T01:24:09.232Z,101204.94
2018-07-26T01:29:01.966Z,101198.08
2018-07-26T01:33:54.623Z,101210.13
2018-07-26T01:38:47.278Z,101199.37
2018-07-26T01:43:57.410Z,101202.67
2018-07-26T01:48:50.314Z,101206.05
2018-07-26T01:53:43.743Z,101203.73
2018-07-26T01:58:36.382Z,101203.19
2018-07-26T02:03:29.095Z,101206.78
2018-07-26T02:08:21.806Z,101205.66
2018-07-26T02:13:14.385Z,101200.16
2018-07-26T02:18:07.015Z,101198.23
2018-07-26T02:22:59.546Z,101191.45
2018-07-26T02:27:52.627Z,101202.44
2018-07-26T02:32:45.198Z,101204.81
2018-07-26T02:37:37.836Z,101211.02
2018-07-26T02:42:30.439Z,101211.73
2018-07-26T02:47:23.024Z,101221.43
2018-07-26T02:52:15.655Z,101219.52
2018-07-26T02:57:08.206Z,101219.73
2018-07-26T03:02:00.828Z,101219.10
2018-07-26T03:06:53.377Z,101221.98
2018-07-26T03:11:45.996Z,101228.77
2018-07-26T03:16:38.600Z,101227.81
2018-07-26T03:21:31.315Z,101227.64
2018-07-26T03:26:23.999Z,101223.08
2018-07-26T03:31:16.564Z,101223.80
2018-07-26T03:36:09.134Z,101225.55
2018-07-26T03:41:01.724Z,101224.22
2018-07-26T03:45:54.403Z,101222.95
2018-07-26T03:50:46.991Z,101226.30
2018-07-26T03:55:39.650Z,101228.83
2018-07-26T04:00:32.183Z,101233.57
2018-07-26T04:05:24.805Z,101231.34
2018-07-26T04:10:17.531Z,101239.00
2018-07-26T04:15:10.077Z,101239.26
2018-07-26T04:20:02.783Z,101240.18
2018-07-26T04:24:55.253Z,101248.76
2018-07-26T04:29:47.854Z,101249.84
2018-07-26T04:34:40.409Z,101246.75
2018-07-26T04:39:33.012Z,101251.88
2018-07-26T04:44:25.667Z,101252.70
2018-07-26T04:49:18.251Z,101255.11
2018-07-26T04:54:10.889Z,101263.58
2018-07-26T04:59:03.514Z,101267.63
2018-07-26T05:03:56.349Z,101264.13
2018-07-26T05:08:48.970Z,101273.13
2018-07-26T05:13:41.589Z,101274.46
2018-07-26T05:18:34.251Z,101276.91
2018-07-26T05:23:26.848Z,101280.14
2018-07-26T05:28:19.546Z,101278.66
2018-07-26T05:33:12.154Z,101281.55
2018-07-26T05:38:04.756Z,101269.10
2018-07-26T05:42:57.387Z,101281.95
2018-07-26T05:47:50.067Z,101282.44
2018-07-26T05:52:42.674Z,101281.53
2018-07-26T05:57:35.581Z,101284.98
2018-07-26T06:02:28.230Z,101281.03
2018-07-26T06:07:20.976Z,101283.91
2018-07-26T06:12:13.719Z,101278.58
2018-07-26T06:17:06.423Z,101283.66
2018-07-26T06:21:59.255Z,101285.13
2018-07-26T06:26:51.914Z,101288.22
2018-07-26T06:31:44.622Z,101293.58
2018-07-26T06:36:37.341Z,101299.00
2018-07-26T06:41:30.105Z,101304.25
2018-07-26T06:46:22.853Z,101303.13
2018-07-26T06:51:15.853Z,101305.02
2018-07-26T06:56:08.523Z,101306.56
2018-07-26T07:01:01.288Z,101306.12
2018-07-26T07:05:53.935Z,101306.19
2018-07-26T07:10:46.650Z,101316.41
2018-07-26T07:15:39.331Z,101321.80
2018-07-26T07:20:32.382Z,101324.91
2018-07-26T07:25:25.019Z,101328.87
2018-07-26T07:30:17.867Z,101336.34
2018-07-26T07:35:10.583Z,101338.86
2018-07-26T07:40:03.677Z,101339.29
2018-07-26T07:44:56.309Z,101340.78
2018-07-26T07:49:48.936Z,101340.98
2018-07-26T07:54:41.638Z,101336.79
2018-07-26T07:59:34.273Z,101334.53
2018-07-26T08:04:26.921Z,101339.06
2018-07-26T08:09:19.607Z,101344.03
2018-07-26T08:14:12.244Z,101339.64
2018-07-26T08:19:08.124Z,101349.56
2018-07-26T08:24:00.857Z,101343.70
2018-07-26T08:28:53.541Z,101350.97
2018-07-26T08:33:46.211Z,101346.24
2018-07-26T08:38:38.889Z,101344.23
2018-07-26T08:43:31.687Z,101343.89
2018-07-26T08:48:24.235Z,101350.78
2018-07-26T08:53:17.057Z,101347.83
2018-07-26T08:58:09.837Z,101352.44
2018-07-26T09:03:02.657Z,101351.35
2018-07-26T09:07:55.440Z,101346.80
2018-07-26T09:12:48.151Z,101354.64
2018-07-26T09:17:40.874Z,101352.33
2018-07-26T09:22:33.799Z,101351.05
2018-07-26T09:27:26.392Z,101354.50
2018-07-26T09:32:19.260Z,101350.29
2018-07-26T09:37:11.869Z,101354.42
2018-07-26T09:42:04.705Z,101346.31
2018-07-26T09:46:57.525Z,101349.51
2018-07-26T09:51:50.170Z,101341.03
2018-07-26T09:56:42.913Z,101332.83
2018-07-26T10:01:37.004Z,101334.05
2018-07-26T10:06:29.646Z,101340.38
2018-07-26T10:11:23.121Z,101333.88
2018-07-26T10:16:15.890Z,101325.02
2018-07-26T10:21:08.520Z,101320.28
2018-07-26T10:26:01.202Z,101323.91
2018-07-26T10:30:53.773Z,101322.08
2018-07-26T10:35:46.447Z,101321.42
2018-07-26T10:40:39.116Z,101310.82
2018-07-26T10:45:31.704Z,101307.11
2018-07-26T10:50:24.442Z,101306.42
2018-07-26T10:55:17.126Z,101309.42
2018-07-26T11:00:09.787Z,101313.36
2018-07-26T11:05:02.427Z,101309.22
2018-07-26T11:09:55.159Z,101302.73
2018-07-26T11:14:47.979Z,101291.83
2018-07-26T11:19:40.602Z,101298.72
2018-07-26T11:24:33.215Z,101293.36
2018-07-26T11:29:25.903Z,101295.66
2018-07-26T11:34:18.627Z,101281.25
2018-07-26T11:39:11.556Z,101276.28
2018-07-26T11:44:04.316Z,101271.37
2018-07-26T11:48:57.252Z,101270.84
2018-07-26T11:53:49.878Z,101268.73
2018-07-26T11:58:42.549Z,101256.70
2018-07-26T12:03:35.132Z,101257.05
2018-07-26T12:08:27.899Z,101252.55
2018-07-26T12:13:20.817Z,101246.99
2018-07-26T12:18:13.520Z,101247.33
2018-07-26T12:23:06.369Z,101231.48
2018-07-26T12:27:58.946Z,101233.32
2018-07-26T12:32:51.666Z,101224.97
2018-07-26T12:37:44.266Z,101219.41
2018-07-26T12:42:37.135Z,101214.89
2018-07-26T12:47:29.820Z,101213.22
2018-07-26T12:52:22.523Z,101212.84
2018-07-26T12:57:15.455Z,101214.88
2018-07-26T13:02:08.131Z,101215.70
2018-07-26T13:07:00.829Z,101203.05
2018-07-26T13:11:53.418Z,101204.37
2018-07-26T13:16:46.899Z,101193.17
2018-07-26T13:21:39.512Z,101196.73
2018-07-26T13:26:32.161Z,101196.66
2018-07-26T13:31:24.956Z,101192.98
2018-07-26T13:36:17.639Z,101194.64
2018-07-26T13:41:10.374Z,101198.53
2018-07-26T13:46:03.152Z,101184.35
2018-07-26T13:50:55.816Z,101185.23
2018-07-26T13:55:48.526Z,101186.86
2018-07-26T14:00:41.326Z,101182.46
2018-07-26T14:05:33.878Z,101166.17
2018-07-26T14:10:26.460Z,101178.34
2018-07-26T14:15:19.126Z,101177.47
2018-07-26T14:20:12.387Z,101175.17
2018-07-26T14:25:05.550Z,101179.11
2018-07-26T14:29:58.384Z,101178.48
2018-07-26T14:34:51.238Z,101165.16
2018-07-26T14:39:43.790Z,101164.73
2018-07-26T14:44:36.528Z,101156.34
2018-07-26T14:49:29.090Z,101162.64
2018-07-26T14:54:21.748Z,101158.45
2018-07-26T14:59:14.531Z,101154.72
2018-07-26T15:04:07.529Z,101150.90
2018-07-26T15:09:00.228Z,101148.69
2018-07-26T15:13:52.973Z,101146.33
2018-07-26T15:18:45.678Z,101148.08
2018-07-26T15:23:38.312Z,101148.23
2018-07-26T15:28:31.132Z,101149.14
2018-07-26T15:33:24.336Z,101136.20
2018-07-26T15:38:17.004Z,101137.97
2018-07-26T15:43:09.681Z,101142.05
2018-07-26T15:48:03.060Z,101129.13
2018-07-26T15:52:55.698Z,101141.09
2018-07-26T15:57:48.363Z,101136.41
2018-07-26T16:02:41.001Z,101132.56
2018-07-26T16:07:33.883Z,101132.85
2018-07-26T16:12:26.585Z,101132.05
2018-07-26T16:17:19.265Z,101127.85
2018-07-26T16:22:12.067Z,101118.42
2018-07-26T16:27:04.958Z,101126.00
2018-07-26T16:31:57.932Z,101118.95
2018-07-26T16:36:50.800Z,101118.49
2018-07-26T16:41:43.487Z,101122.34
2018-07-26T16:46:36.561Z,101121.66
2018-07-26T16:51:29.300Z,101119.95
2018-07-26T16:56:22.253Z,101118.65
2018-07-26T17:01:15.087Z,101121.75
2018-07-26T17:06:07.737Z,101120.22
2018-07-26T17:11:00.446Z,101116.91
2018-07-26T17:15:53.153Z,101116.05
2018-07-26T17:20:45.884Z,101117.44
2018-07-26T17:25:38.483Z,101118.84
2018-07-26T17:30:31.172Z,101126.48
2018-07-26T17:35:23.806Z,101115.70
2018-07-26T17:40:16.468Z,101123.42
2018-07-26T17:45:10.523Z,101123.02
2018-07-26T17:50:04.258Z,101131.94
2018-07-26T17:54:56.899Z,101138.75
2018-07-26T17:59:49.471Z,101142.31
2018-07-26T18:04:42.210Z,101143.88
2018-07-26T18:09:34.870Z,101140.57
2018-07-26T18:14:27.621Z,101146.98
2018-07-26T18:19:20.276Z,101142.25
2018-07-26T18:24:13.166Z,101154.83
2018-07-26T18:29:06.007Z,101156.12
2018-07-26T18:33:58.599Z,101156.83
2018-07-26T18:38:51.290Z,101165.30
2018-07-26T18:43:43.950Z,101171.38
2018-07-26T18:48:36.598Z,101186.89
2018-07-26T18:53:29.573Z,101184.36
2018-07-26T18:58:22.210Z,101189.06
2018-07-26T19:03:14.833Z,101193.37
2018-07-26T19:08:07.407Z,101203.77
2018-07-26T19:13:00.079Z,101212.61
2018-07-26T19:17:52.643Z,101220.14
2018-07-26T19:22:45.374Z,101220.75
2018-07-26T19:27:37.955Z,101232.68
2018-07-26T19:32:30.644Z,101238.38
2018-07-26T19:37:23.333Z,101237.34
2018-07-26T19:42:15.958Z,101235.83
2018-07-26T19:47:08.607Z,101243.11
2018-07-26T19:52:01.181Z,101240.35
2018-07-26T19:56:53.880Z,101248.33
2018-07-26T20:01:46.489Z,101248.45
2018-07-26T20:06:39.249Z,101253.55
2018-07-26T20:11:31.928Z,101242.44
2018-07-26T20:16:24.597Z,101247.89
2018-07-26T20:21:17.540Z,101256.91
2018-07-26T20:26:10.142Z,101261.52
2018-07-26T20:31:02.803Z,101264.50
2018-07-26T20:35:55.502Z,101261.02
2018-07-26T20:40:48.000Z,101263.56
2018-07-26T20:45:40.633Z,101254.41
2018-07-26T20:50:33.216Z,101262.97
2018-07-26T20:55:25.959Z,101262.59
2018-07-26T21:00:18.639Z,101268.11
2018-07-26T21:05:11.357Z,101267.06
2018-07-26T21:10:05.058Z,101272.94
2018-07-26T21:14:57.682Z,101267.08
2018-07-26T21:19:50.315Z,101266.36
2018-07-26T21:24:42.950Z,101271.75
2018-07-26T21:29:35.470Z,101276.47
2018-07-26T21:34:28.158Z,101280.58
2018-07-26T21:39:20.760Z,101280.56
2018-07-26T21:44:13.442Z,101269.88
2018-07-26T21:49:06.090Z,101267.15
2018-07-26T21:53:58.678Z,101279.08
2018-07-26T21:58:51.316Z,101275.95
2018-07-26T22:03:43.896Z,101272.91
2018-07-26T22:08:36.620Z,101273.34
2018-07-26T22:13:29.248Z,101275.59
2018-07-26T22:18:22.439Z,101281.52
2018-07-26T22:23:15.229Z,101278.68
2018-07-26T22:28:07.738Z,101272.78
2018-07-26T22:33:00.375Z,101269.85
2018-07-26T22:37:52.972Z,101270.92
2018-07-26T22:42:45.536Z,101266.46
2018-07-26T22:47:38.230Z,101272.77
2018-07-26T22:52:30.811Z,101278.80
2018-07-26T22:57:23.508Z,101277.45
2018-07-26T23:02:16.091Z,101274.06
2018-07-26T23:07:08.717Z,101271.87
2018-07-26T23:12:01.319Z,101278.91
2018-07-26T23:16:53.947Z,101276.17
2018-07-26T23:21:46.533Z,101281.44
2018-07-26T23:26:39.158Z,101276.86
2018-07-26T23:31:31.738Z,101285.77
2018-07-26T23:36:24.482Z,101275.70
2018-07-26T23:41:16.975Z,101265.53
2018-07-26T23:46:09.526Z,101265.02
2018-07-26T23:51:02.053Z,101262.08
2018-07-26T23:55:54.655Z,101260.20
